Time;durP1;ratioP1;P1;durP2;ratioP2;P2;SDS_P1;SDS_P2;PMS_P1;PMS_P2;Temp;Humidity;BMP_temperature;BMP_pressure;BME280_temperature;BME280_humidity;BME280_pressure;Samples;Min_cycle;Max_cycle;Signal;HPM_P1;HPM_P2
2023/07/05 00:00:15;;;;;;;;;16.00;14.67;;;;;;;;5102666;27;45265;-75
2023/07/05 00:02:40;;;;;;;;;16.00;14.67;;;;;;;;5102351;27;45274;-76
2023/07/05 00:05:06;;;;;;;;;17.67;16.00;;;;;;;;5102367;27;45263;-75
2023/07/05 00:07:31;;;;;;;;;14.67;14.67;;;;;;;;5102597;27;45294;-74
2023/07/05 00:09:57;;;;;;;;;16.67;15.67;;;;;;;;5101778;27;45538;-75
2023/07/05 00:12:22;;;;;;;;;14.00;13.00;;;;;;;;5102701;27;46527;-76
2023/07/05 00:14:47;;;;;;;;;15.67;13.67;;;;;;;;5102857;27;45338;-75
2023/07/05 00:17:12;;;;;;;;;14.67;14.33;;;;;;;;5103407;27;45272;-76
2023/07/05 00:19:39;;;;;;;;;17.67;16.33;;;;;;;;5102702;27;45332;-76
2023/07/05 00:22:04;;;;;;;;;14.67;14.00;;;;;;;;5084808;27;47440;-76
2023/07/05 00:24:29;;;;;;;;;15.00;14.67;;;;;;;;5103040;27;45560;-75
2023/07/05 00:26:54;;;;;;;;;17.00;14.33;;;;;;;;5083842;27;45393;-75
2023/07/05 00:29:20;;;;;;;;;11.00;10.33;;;;;;;;5094200;27;45409;-75
2023/07/05 00:31:45;;;;;;;;;15.33;15.33;;;;;;;;5083496;28;45695;-76
2023/07/05 00:34:10;;;;;;;;;14.33;14.00;;;;;;;;5083476;28;45449;-76
2023/07/05 00:36:35;;;;;;;;;15.00;14.33;;;;;;;;5085347;28;45318;-76
2023/07/05 00:39:00;;;;;;;;;15.33;15.33;;;;;;;;5085494;28;45327;-76
2023/07/05 00:41:25;;;;;;;;;18.00;16.67;;;;;;;;5088584;28;46304;-75
2023/07/05 00:43:51;;;;;;;;;15.67;14.33;;;;;;;;5056223;28;45439;-75
2023/07/05 00:46:25;;;;;;;;;13.33;13.00;;;;;;;;5079833;28;45393;-75
2023/07/05 00:48:59;;;;;;;;;13.33;11.33;;;;;;;;5085444;28;45426;-75
2023/07/05 00:51:24;;;;;;;;;13.67;13.00;;;;;;;;5086535;28;46129;-75
2023/07/05 00:53:51;;;;;;;;;11.00;11.00;;;;;;;;5086123;28;45346;-75
2023/07/05 00:56:22;;;;;;;;;10.67;9.67;;;;;;;;5067771;28;45347;-76
2023/07/05 00:58:48;;;;;;;;;14.67;13.00;;;;;;;;5066279;28;46664;-75
2023/07/05 01:01:13;;;;;;;;;16.00;13.00;;;;;;;;5082639;28;46324;-76
2023/07/05 01:03:39;;;;;;;;;13.00;12.00;;;;;;;;5088362;28;45325;-75
2023/07/05 01:06:06;;;;;;;;;14.67;13.00;;;;;;;;5087332;28;45591;-75
2023/07/05 01:08:31;;;;;;;;;14.00;14.00;;;;;;;;5084728;28;45468;-75
2023/07/05 01:11:12;;;;;;;;;15.67;13.00;;;;;;;;5085755;28;45488;-76
2023/07/05 01:13:45;;;;;;;;;11.67;11.67;;;;;;;;5067199;28;46150;-75
2023/07/05 01:16:10;;;;;;;;;12.67;11.67;;;;;;;;5068654;28;45253;-75
2023/07/05 01:18:37;;;;;;;;;14.67;13.67;;;;;;;;5084113;28;45233;-76
2023/07/05 01:21:19;;;;;;;;;7.00;7.00;;;;;;;;5064090;28;47026;-74
2023/07/05 01:23:44;;;;;;;;;12.33;11.00;;;;;;;;5081753;28;45296;-75
2023/07/05 01:26:28;;;;;;;;;11.50;11.00;;;;;;;;5082203;28;45327;-75
2023/07/05 01:29:06;;;;;;;;;12.00;11.67;;;;;;;;5086307;27;45673;-74
2023/07/05 01:31:31;;;;;;;;;14.33;13.33;;;;;;;;5101888;27;45261;-75
2023/07/05 01:33:56;;;;;;;;;10.33;10.33;;;;;;;;5101796;27;45236;-74
2023/07/05 01:36:21;;;;;;;;;10.00;9.00;;;;;;;;5083734;27;45228;-74
2023/07/05 01:38:47;;;;;;;;;13.33;13.00;;;;;;;;5081562;27;45969;-75
2023/07/05 01:41:12;;;;;;;;;10.00;10.00;;;;;;;;5101161;27;45314;-75
2023/07/05 01:43:40;;;;;;;;;7.67;6.67;;;;;;;;5082999;27;45375;-75
2023/07/05 01:46:14;;;;;;;;;10.67;10.67;;;;;;;;5082538;27;45709;-75
2023/07/05 01:48:42;;;;;;;;;8.67;7.67;;;;;;;;5100717;27;45814;-74
2023/07/05 01:51:12;;;;;;;;;11.67;11.67;;;;;;;;5081948;27;46151;-75
2023/07/05 01:53:44;;;;;;;;;9.00;9.00;;;;;;;;5080858;27;45763;-74
2023/07/05 01:56:15;;;;;;;;;11.33;10.00;;;;;;;;5100793;27;45281;-75
2023/07/05 01:58:44;;;;;;;;;9.67;9.67;;;;;;;;5081901;27;46090;-75
2023/07/05 02:01:11;;;;;;;;;10.67;9.67;;;;;;;;5100571;27;45368;-75
2023/07/05 02:03:37;;;;;;;;;9.00;9.00;;;;;;;;5082346;27;45282;-75
2023/07/05 02:06:04;;;;;;;;;8.67;8.67;;;;;;;;5100424;27;45455;-75
2023/07/05 02:08:29;;;;;;;;;12.33;9.67;;;;;;;;5081847;27;47138;-75
2023/07/05 02:10:55;;;;;;;;;8.33;8.00;;;;;;;;5100247;27;45516;-75
2023/07/05 02:13:20;;;;;;;;;12.00;12.00;;;;;;;;5099526;27;45474;-74
2023/07/05 02:15:48;;;;;;;;;7.00;6.67;;;;;;;;5100594;27;45237;-75
2023/07/05 02:18:14;;;;;;;;;9.00;6.00;;;;;;;;5100686;27;45276;-75
2023/07/05 02:20:41;;;;;;;;;10.00;9.00;;;;;;;;5100112;27;46037;-74
2023/07/05 02:23:06;;;;;;;;;6.00;5.33;;;;;;;;5081489;27;45385;-76
2023/07/05 02:25:32;;;;;;;;;6.00;6.00;;;;;;;;5082013;27;45297;-75
2023/07/05 02:27:57;;;;;;;;;5.00;3.33;;;;;;;;5081503;27;47438;-75
2023/07/05 02:30:24;;;;;;;;;7.00;7.00;;;;;;;;5082381;27;45416;-75
2023/07/05 02:32:49;;;;;;;;;4.00;4.00;;;;;;;;5079707;28;45348;-75
2023/07/05 02:35:14;;;;;;;;;4.00;4.00;;;;;;;;5079746;28;45323;-75
2023/07/05 02:37:39;;;;;;;;;4.33;4.33;;;;;;;;5079810;28;45410;-76
2023/07/05 02:40:05;;;;;;;;;3.67;3.00;;;;;;;;5061357;28;47169;-75
2023/07/05 02:42:30;;;;;;;;;5.67;5.00;;;;;;;;5061276;28;45375;-74
2023/07/05 02:44:55;;;;;;;;;5.00;5.00;;;;;;;;5079501;28;45446;-75
2023/07/05 02:47:21;;;;;;;;;4.67;3.67;;;;;;;;5079558;28;45244;-74
2023/07/05 02:49:46;;;;;;;;;6.33;5.00;;;;;;;;5079605;28;46244;-75
2023/07/05 02:52:12;;;;;;;;;4.00;4.00;;;;;;;;5082913;28;45356;-75
2023/07/05 02:54:37;;;;;;;;;5.00;3.67;;;;;;;;5083270;28;45264;-77
2023/07/05 02:57:03;;;;;;;;;4.67;4.67;;;;;;;;5083056;28;45390;-75
2023/07/05 02:59:28;;;;;;;;;3.33;3.00;;;;;;;;5064590;28;47535;-75
2023/07/05 03:01:53;;;;;;;;;6.00;5.67;;;;;;;;5082932;28;45361;-76
2023/07/05 03:04:18;;;;;;;;;7.00;5.00;;;;;;;;5064665;28;45487;-74
2023/07/05 03:06:44;;;;;;;;;2.67;2.00;;;;;;;;5064660;28;46237;-75
2023/07/05 03:09:09;;;;;;;;;5.00;5.00;;;;;;;;5082528;28;46485;-74
2023/07/05 03:11:34;;;;;;;;;4.33;4.00;;;;;;;;5082778;28;45291;-75
2023/07/05 03:13:59;;;;;;;;;4.00;4.00;;;;;;;;5082046;28;45555;-75
2023/07/05 03:16:24;;;;;;;;;4.00;3.00;;;;;;;;5064183;28;45844;-75
2023/07/05 03:18:49;;;;;;;;;2.67;2.00;;;;;;;;5082616;28;45145;-74
2023/07/05 03:21:15;;;;;;;;;5.33;4.00;;;;;;;;5064366;28;45389;-75
2023/07/05 03:23:40;;;;;;;;;1.33;1.33;;;;;;;;5064133;28;45351;-75
2023/07/05 03:26:09;;;;;;;;;7.00;5.00;;;;;;;;5082580;28;45479;-74
2023/07/05 03:28:35;;;;;;;;;4.00;4.00;;;;;;;;5082229;28;45492;-75
2023/07/05 03:31:02;;;;;;;;;4.00;4.00;;;;;;;;5063897;28;45359;-75
2023/07/05 03:33:27;;;;;;;;;6.67;4.33;;;;;;;;5082571;28;45267;-75
2023/07/05 03:35:53;;;;;;;;;7.00;4.00;;;;;;;;5082243;28;45311;-75
2023/07/05 03:38:19;;;;;;;;;4.00;4.00;;;;;;;;5082023;28;45287;-75
2023/07/05 03:40:44;;;;;;;;;2.33;2.00;;;;;;;;5082369;28;45368;-75
2023/07/05 03:43:09;;;;;;;;;4.00;4.00;;;;;;;;5082369;28;45272;-75
2023/07/05 03:45:34;;;;;;;;;6.33;5.67;;;;;;;;5081941;28;45379;-74
2023/07/05 03:48:00;;;;;;;;;3.33;3.33;;;;;;;;5082097;28;45546;-75
2023/07/05 03:50:25;;;;;;;;;5.00;3.00;;;;;;;;5082054;28;45324;-75
2023/07/05 03:52:50;;;;;;;;;4.67;4.67;;;;;;;;5082160;28;45158;-74
2023/07/05 03:55:15;;;;;;;;;3.00;3.00;;;;;;;;5063528;28;46111;-74
2023/07/05 03:57:40;;;;;;;;;5.67;5.00;;;;;;;;5063650;28;48408;-74
2023/07/05 04:00:06;;;;;;;;;3.00;3.00;;;;;;;;5063620;28;45347;-75
2023/07/05 04:02:31;;;;;;;;;4.00;4.00;;;;;;;;5062604;28;45204;-75
2023/07/05 04:04:56;;;;;;;;;5.33;2.67;;;;;;;;5063494;28;46279;-75
2023/07/05 04:07:21;;;;;;;;;2.00;1.33;;;;;;;;5081586;28;46125;-75
2023/07/05 04:09:46;;;;;;;;;3.33;3.00;;;;;;;;5081569;28;45277;-75
2023/07/05 04:12:12;;;;;;;;;3.00;3.00;;;;;;;;5063474;28;45375;-75
2023/07/05 04:14:37;;;;;;;;;3.67;3.00;;;;;;;;5063445;28;47040;-74
2023/07/05 04:17:03;;;;;;;;;4.00;4.00;;;;;;;;5081602;28;46207;-74
2023/07/05 04:19:28;;;;;;;;;4.00;3.00;;;;;;;;5081584;28;45341;-75
2023/07/05 04:21:53;;;;;;;;;6.00;5.00;;;;;;;;5081576;28;45283;-74
2023/07/05 04:24:18;;;;;;;;;5.33;5.33;;;;;;;;5081441;28;45436;-74
2023/07/05 04:26:43;;;;;;;;;5.00;4.33;;;;;;;;5081381;28;45292;-74
2023/07/05 04:29:09;;;;;;;;;7.00;6.67;;;;;;;;5088714;27;45395;-74
2023/07/05 04:31:34;;;;;;;;;9.33;7.67;;;;;;;;5067777;28;45437;-74
2023/07/05 04:34:01;;;;;;;;;8.00;8.00;;;;;;;;5062124;28;47158;-74
2023/07/05 04:36:26;;;;;;;;;5.00;5.00;;;;;;;;5079148;28;45465;-74
2023/07/05 04:38:52;;;;;;;;;9.67;8.67;;;;;;;;5061879;28;45420;-75
2023/07/05 04:41:17;;;;;;;;;10.00;9.00;;;;;;;;5080846;28;45359;-75
2023/07/05 04:43:42;;;;;;;;;10.67;9.00;;;;;;;;5062198;28;46927;-74
2023/07/05 04:46:07;;;;;;;;;10.33;9.67;;;;;;;;5079641;28;45278;-74
2023/07/05 04:48:32;;;;;;;;;9.67;9.67;;;;;;;;5081073;28;45264;-75
2023/07/05 04:50:58;;;;;;;;;7.67;6.67;;;;;;;;5081242;28;45318;-75
2023/07/05 04:53:24;;;;;;;;;10.67;8.00;;;;;;;;5080895;28;45329;-74
2023/07/05 04:55:51;;;;;;;;;8.33;8.00;;;;;;;;5062696;28;48190;-74
2023/07/05 04:58:16;;;;;;;;;12.00;10.00;;;;;;;;5080718;28;45265;-74
2023/07/05 05:00:46;;;;;;;;;4.67;4.67;;;;;;;;5080999;28;45214;-74
2023/07/05 05:03:11;;;;;;;;;8.33;7.00;;;;;;;;5080913;28;45378;-74
2023/07/05 05:05:36;;;;;;;;;7.33;7.00;;;;;;;;5080731;28;46516;-74
2023/07/05 05:08:01;;;;;;;;;9.67;8.33;;;;;;;;5080589;28;45347;-75
2023/07/05 05:10:26;;;;;;;;;5.67;5.00;;;;;;;;5081104;28;45508;-75
2023/07/05 05:12:51;;;;;;;;;6.00;5.67;;;;;;;;5062040;28;46186;-73
2023/07/05 05:15:17;;;;;;;;;10.33;9.00;;;;;;;;5080423;28;46305;-74
2023/07/05 05:17:42;;;;;;;;;7.33;7.00;;;;;;;;5080833;28;45426;-74
2023/07/05 05:20:07;;;;;;;;;8.00;6.67;;;;;;;;5080804;28;45257;-74
2023/07/05 05:22:32;;;;;;;;;8.00;7.00;;;;;;;;5062208;28;46411;-73
2023/07/05 05:24:58;;;;;;;;;9.33;7.67;;;;;;;;5080295;28;45404;-74
2023/07/05 05:27:23;;;;;;;;;6.00;6.00;;;;;;;;5080678;28;45359;-74
2023/07/05 05:29:48;;;;;;;;;7.67;6.00;;;;;;;;5093309;27;45223;-74
2023/07/05 05:32:13;;;;;;;;;8.00;6.00;;;;;;;;5100879;27;45534;-74
2023/07/05 05:34:38;;;;;;;;;6.00;6.00;;;;;;;;5100813;27;45301;-74
2023/07/05 05:37:03;;;;;;;;;3.67;3.67;;;;;;;;5082261;27;45358;-75
2023/07/05 05:39:29;;;;;;;;;7.67;7.67;;;;;;;;5079342;27;45552;-74
2023/07/05 05:41:54;;;;;;;;;4.00;3.00;;;;;;;;5080362;28;45298;-75
2023/07/05 05:44:19;;;;;;;;;6.67;6.67;;;;;;;;5079672;28;46216;-73
2023/07/05 05:46:44;;;;;;;;;5.33;5.33;;;;;;;;5062097;28;45316;-73
2023/07/05 05:49:09;;;;;;;;;7.00;7.00;;;;;;;;5080404;28;45310;-76
2023/07/05 05:51:34;;;;;;;;;6.00;6.00;;;;;;;;5061965;28;46050;-73
2023/07/05 05:54:00;;;;;;;;;6.33;6.00;;;;;;;;5061565;28;48260;-73
2023/07/05 05:56:25;;;;;;;;;7.00;6.50;;;;;;;;5080165;28;45377;-73
2023/07/05 05:58:50;;;;;;;;;3.00;2.33;;;;;;;;5061999;28;45257;-75
2023/07/05 06:01:15;;;;;;;;;4.67;4.33;;;;;;;;5080087;28;45246;-75
2023/07/05 06:03:41;;;;;;;;;6.33;6.33;;;;;;;;5080072;28;45702;-74
2023/07/05 06:06:06;;;;;;;;;7.00;6.00;;;;;;;;5080025;28;45530;-74
2023/07/05 06:08:32;;;;;;;;;12.00;8.00;;;;;;;;5079962;28;45358;-76
2023/07/05 06:10:58;;;;;;;;;5.67;5.67;;;;;;;;5076748;28;45478;-75
2023/07/05 06:13:24;;;;;;;;;8.00;7.33;;;;;;;;5076282;28;45576;-75
2023/07/05 06:15:56;;;;;;;;;6.00;6.00;;;;;;;;5079093;28;45394;-74
2023/07/05 06:18:21;;;;;;;;;7.67;7.67;;;;;;;;5079861;28;45358;-74
2023/07/05 06:20:47;;;;;;;;;7.67;5.33;;;;;;;;5078696;28;46055;-74
2023/07/05 06:23:12;;;;;;;;;5.33;5.33;;;;;;;;5060613;28;47173;-73
2023/07/05 06:25:37;;;;;;;;;8.00;6.67;;;;;;;;5062245;28;45917;-74
2023/07/05 06:28:02;;;;;;;;;5.00;5.00;;;;;;;;5083173;28;45314;-76
2023/07/05 06:30:27;;;;;;;;;7.33;6.33;;;;;;;;5077000;27;45309;-74
2023/07/05 06:32:53;;;;;;;;;10.33;8.33;;;;;;;;5075647;28;46347;-73
2023/07/05 06:35:18;;;;;;;;;9.33;7.00;;;;;;;;5072876;28;45354;-74
2023/07/05 06:37:44;;;;;;;;;7.00;6.00;;;;;;;;5072620;28;45616;-75
2023/07/05 06:40:09;;;;;;;;;11.33;9.00;;;;;;;;5079891;28;45261;-75
2023/07/05 06:42:35;;;;;;;;;7.33;7.33;;;;;;;;5084373;28;45211;-75
2023/07/05 06:45:00;;;;;;;;;8.33;7.00;;;;;;;;5064903;28;45514;-78
2023/07/05 06:47:25;;;;;;;;;7.33;7.00;;;;;;;;5057635;28;45321;-76
2023/07/05 06:49:51;;;;;;;;;7.67;7.33;;;;;;;;5072444;28;46670;-76
2023/07/05 06:52:16;;;;;;;;;8.33;8.33;;;;;;;;5070969;28;45551;-73
2023/07/05 06:54:42;;;;;;;;;8.67;8.67;;;;;;;;5072846;28;45251;-77
2023/07/05 06:57:07;;;;;;;;;6.67;5.67;;;;;;;;5053459;28;45245;-74
2023/07/05 06:59:32;;;;;;;;;6.00;6.00;;;;;;;;5071718;28;45471;-73
2023/07/05 07:01:57;;;;;;;;;7.00;7.00;;;;;;;;5054761;28;47395;-72
2023/07/05 07:04:22;;;;;;;;;10.33;8.33;;;;;;;;5070768;28;45268;-74
2023/07/05 07:06:47;;;;;;;;;8.00;6.00;;;;;;;;5054182;28;45386;-73
2023/07/05 07:09:13;;;;;;;;;7.00;7.00;;;;;;;;5066971;28;45360;-74
2023/07/05 07:11:38;;;;;;;;;9.33;9.00;;;;;;;;5062295;28;46108;-75
2023/07/05 07:14:04;;;;;;;;;6.00;6.00;;;;;;;;5044291;28;45729;-73
2023/07/05 07:16:29;;;;;;;;;7.00;6.67;;;;;;;;5077433;28;45650;-72
2023/07/05 07:18:55;;;;;;;;;8.67;8.00;;;;;;;;5082614;28;45436;-73
2023/07/05 07:21:21;;;;;;;;;9.00;7.00;;;;;;;;5082339;28;45226;-72
2023/07/05 07:23:47;;;;;;;;;6.00;6.00;;;;;;;;5064068;28;45380;-74
2023/07/05 07:26:16;;;;;;;;;7.67;7.00;;;;;;;;5082448;28;45139;-75
2023/07/05 07:28:41;;;;;;;;;6.33;6.33;;;;;;;;5085609;27;45516;-74
2023/07/05 07:31:13;;;;;;;;;5.67;5.67;;;;;;;;5102676;27;45328;-73
2023/07/05 07:33:38;;;;;;;;;7.67;7.67;;;;;;;;5084443;27;45929;-74
2023/07/05 07:36:08;;;;;;;;;10.67;8.33;;;;;;;;5084109;27;45303;-74
2023/07/05 07:38:33;;;;;;;;;7.67;7.67;;;;;;;;5084116;27;46032;-73
2023/07/05 07:40:58;;;;;;;;;9.67;8.00;;;;;;;;5081427;27;47298;-74
2023/07/05 07:43:23;;;;;;;;;6.00;6.00;;;;;;;;5071180;28;45436;-72
2023/07/05 07:45:49;;;;;;;;;6.67;6.67;;;;;;;;5070732;28;45623;-74
2023/07/05 07:48:14;;;;;;;;;8.67;8.33;;;;;;;;5072104;28;45478;-76
2023/07/05 07:50:39;;;;;;;;;4.67;4.00;;;;;;;;5060141;28;47413;-76
2023/07/05 07:53:04;;;;;;;;;7.00;7.00;;;;;;;;5069416;28;45343;-75
2023/07/05 07:55:30;;;;;;;;;8.00;7.33;;;;;;;;5049874;28;45773;-74
2023/07/05 07:57:55;;;;;;;;;11.00;9.00;;;;;;;;5076380;28;45530;-75
2023/07/05 08:00:20;;;;;;;;;7.33;6.00;;;;;;;;5081101;28;45499;-75
2023/07/05 08:02:45;;;;;;;;;5.00;5.00;;;;;;;;5081378;28;45295;-75
2023/07/05 08:05:14;;;;;;;;;9.00;7.00;;;;;;;;5080945;28;45308;-74
2023/07/05 08:07:40;;;;;;;;;10.00;7.00;;;;;;;;5081295;28;45563;-74
2023/07/05 08:10:05;;;;;;;;;6.67;4.67;;;;;;;;5062118;28;47289;-73
2023/07/05 08:12:31;;;;;;;;;6.00;5.00;;;;;;;;5081114;28;45389;-75
2023/07/05 08:14:56;;;;;;;;;9.00;7.00;;;;;;;;5081137;28;45310;-75
2023/07/05 08:17:21;;;;;;;;;6.00;6.00;;;;;;;;5061536;28;47085;-75
2023/07/05 08:19:46;;;;;;;;;6.67;6.67;;;;;;;;5062679;28;47904;-73
2023/07/05 08:22:12;;;;;;;;;6.67;6.67;;;;;;;;5081097;28;45288;-75
2023/07/05 08:24:37;;;;;;;;;5.00;5.00;;;;;;;;5080126;28;45317;-76
2023/07/05 08:27:02;;;;;;;;;7.00;7.00;;;;;;;;5080932;28;45416;-75
2023/07/05 08:29:28;;;;;;;;;7.00;7.00;;;;;;;;5081826;27;45618;-76
2023/07/05 08:31:53;;;;;;;;;6.00;6.00;;;;;;;;5070122;28;45433;-75
2023/07/05 08:34:18;;;;;;;;;6.00;5.67;;;;;;;;5051903;28;45635;-76
2023/07/05 08:36:45;;;;;;;;;6.00;6.00;;;;;;;;5071451;28;45502;-75
2023/07/05 08:39:11;;;;;;;;;6.33;6.33;;;;;;;;5069552;28;45424;-75
2023/07/05 08:41:43;;;;;;;;;6.00;6.00;;;;;;;;5070004;28;45357;-76
2023/07/05 08:44:11;;;;;;;;;5.67;5.00;;;;;;;;5069171;28;45380;-75
2023/07/05 08:46:38;;;;;;;;;8.00;7.00;;;;;;;;5069969;28;45965;-76
2023/07/05 08:49:21;;;;;;;;;7.00;6.00;;;;;;;;5070477;28;46609;-75
2023/07/05 08:51:46;;;;;;;;;8.67;8.00;;;;;;;;5070757;28;45426;-75
2023/07/05 08:54:13;;;;;;;;;8.00;5.00;;;;;;;;5072988;28;45592;-76
2023/07/05 08:56:41;;;;;;;;;5.67;5.67;;;;;;;;5052984;28;46236;-74
2023/07/05 08:59:23;;;;;;;;;6.00;6.00;;;;;;;;5061835;28;47718;-75
2023/07/05 09:01:50;;;;;;;;;6.00;4.67;;;;;;;;5062570;28;45377;-73
2023/07/05 09:04:34;;;;;;;;;5.00;5.00;;;;;;;;5080885;28;45416;-75
2023/07/05 09:06:59;;;;;;;;;4.67;4.00;;;;;;;;5080702;28;45298;-76
2023/07/05 09:09:24;;;;;;;;;5.33;4.33;;;;;;;;5080265;28;45430;-75
2023/07/05 09:11:52;;;;;;;;;4.67;4.33;;;;;;;;5078688;28;45518;-75
2023/07/05 09:14:26;;;;;;;;;6.00;6.00;;;;;;;;5080931;28;45330;-74
2023/07/05 09:16:56;;;;;;;;;6.33;6.00;;;;;;;;5080623;28;45358;-74
2023/07/05 09:19:40;;;;;;;;;5.33;5.33;;;;;;;;5062148;28;46286;-74
2023/07/05 09:22:09;;;;;;;;;5.67;5.67;;;;;;;;5079602;28;45361;-76
2023/07/05 09:24:36;;;;;;;;;6.67;6.67;;;;;;;;5062358;28;45294;-74
2023/07/05 09:27:06;;;;;;;;;6.00;6.00;;;;;;;;5080467;28;45330;-75
2023/07/05 09:29:34;;;;;;;;;6.33;6.33;;;;;;;;5090570;27;46536;-76
2023/07/05 09:32:01;;;;;;;;;5.00;5.00;;;;;;;;5100903;27;45252;-74
2023/07/05 09:34:39;;;;;;;;;7.00;7.00;;;;;;;;5101103;27;45305;-74
2023/07/05 09:37:24;;;;;;;;;6.33;6.33;;;;;;;;5100740;27;45283;-75
2023/07/05 09:40:08;;;;;;;;;6.67;6.67;;;;;;;;5085785;27;45218;-75
2023/07/05 09:42:56;;;;;;;;;5.33;4.67;;;;;;;;5100793;27;45573;-75
2023/07/05 09:45:21;;;;;;;;;5.67;5.00;;;;;;;;5100527;27;45279;-75
2023/07/05 09:47:47;;;;;;;;;8.33;7.67;;;;;;;;5082082;27;47268;-75
2023/07/05 09:50:17;;;;;;;;;5.00;4.00;;;;;;;;5082070;27;48102;-74
2023/07/05 09:52:52;;;;;;;;;6.67;5.67;;;;;;;;5100600;27;45300;-74
2023/07/05 09:55:18;;;;;;;;;10.33;10.33;;;;;;;;5100756;27;45312;-75
2023/07/05 09:57:45;;;;;;;;;8.33;8.33;;;;;;;;5081986;27;46450;-76
2023/07/05 10:00:20;;;;;;;;;6.67;6.67;;;;;;;;5099318;27;46103;-75
2023/07/05 10:02:47;;;;;;;;;10.00;9.00;;;;;;;;5100391;27;46091;-75
2023/07/05 10:05:14;;;;;;;;;10.00;7.33;;;;;;;;5082004;27;45314;-75
2023/07/05 10:07:51;;;;;;;;;7.00;7.00;;;;;;;;5100442;27;45337;-75
2023/07/05 10:10:16;;;;;;;;;6.67;5.67;;;;;;;;5100191;27;46025;-74
2023/07/05 10:12:43;;;;;;;;;4.00;4.00;;;;;;;;5100325;27;45321;-74
2023/07/05 10:15:21;;;;;;;;;6.00;5.67;;;;;;;;5100479;27;45263;-77
2023/07/05 10:17:47;;;;;;;;;5.67;4.67;;;;;;;;5081834;27;46553;-77
2023/07/05 10:20:20;;;;;;;;;5.33;5.33;;;;;;;;5100016;27;45404;-77
2023/07/05 10:22:46;;;;;;;;;7.33;7.33;;;;;;;;5081655;27;45432;-78
2023/07/05 10:25:16;;;;;;;;;5.67;5.00;;;;;;;;5081473;27;45423;-75
2023/07/05 10:27:43;;;;;;;;;5.33;4.00;;;;;;;;5099260;27;45443;-76
2023/07/05 10:30:13;;;;;;;;;8.33;8.33;;;;;;;;5065020;28;47422;-75
2023/07/05 10:32:41;;;;;;;;;9.00;8.33;;;;;;;;5060632;28;45276;-76
2023/07/05 10:35:20;;;;;;;;;7.00;7.00;;;;;;;;5078999;28;45355;-77
2023/07/05 10:37:45;;;;;;;;;4.00;4.00;;;;;;;;5057976;28;45257;-76
2023/07/05 10:40:10;;;;;;;;;6.00;6.00;;;;;;;;5039874;28;47305;-74
2023/07/05 10:42:37;;;;;;;;;6.67;6.67;;;;;;;;5057249;28;45377;-75
2023/07/05 10:45:03;;;;;;;;;7.00;6.00;;;;;;;;5058865;28;45410;-77
2023/07/05 10:47:30;;;;;;;;;5.00;5.00;;;;;;;;5057706;28;45437;-76
2023/07/05 10:50:00;;;;;;;;;6.00;6.00;;;;;;;;5058282;28;46337;-76
2023/07/05 10:52:27;;;;;;;;;6.00;5.00;;;;;;;;5058424;28;45328;-75
2023/07/05 10:55:04;;;;;;;;;5.33;5.33;;;;;;;;5040188;28;45364;-77
2023/07/05 10:57:34;;;;;;;;;5.00;5.00;;;;;;;;5058710;28;45489;-76
2023/07/05 11:00:11;;;;;;;;;5.67;4.00;;;;;;;;5040665;28;47361;-74
2023/07/05 11:02:40;;;;;;;;;3.67;3.00;;;;;;;;5058805;28;45267;-78
2023/07/05 11:05:20;;;;;;;;;8.00;5.33;;;;;;;;5054782;28;45440;-76
2023/07/05 11:07:55;;;;;;;;;7.00;7.00;;;;;;;;5069651;28;45237;-78
2023/07/05 11:10:21;;;;;;;;;9.33;6.00;;;;;;;;5066691;28;46404;-77
2023/07/05 11:12:47;;;;;;;;;8.00;7.33;;;;;;;;5070414;28;45378;-77
2023/07/05 11:15:14;;;;;;;;;6.33;6.33;;;;;;;;5072466;28;45281;-79
2023/07/05 11:17:40;;;;;;;;;8.00;8.00;;;;;;;;5052438;28;46184;-77
2023/07/05 11:20:24;;;;;;;;;3.67;3.67;;;;;;;;5070202;28;45455;-79
2023/07/05 11:22:49;;;;;;;;;5.33;4.67;;;;;;;;5053447;28;45408;-79
2023/07/05 11:25:18;;;;;;;;;6.33;5.00;;;;;;;;5054321;28;45403;-78
2023/07/05 11:28:09;;;;;;;;;5.33;5.33;;;;;;;;5070908;28;45390;-78
2023/07/05 11:30:43;;;;;;;;;4.33;4.33;;;;;;;;5069837;27;45500;-79
2023/07/05 11:33:08;;;;;;;;;4.00;4.00;;;;;;;;5069726;28;45501;-78
2023/07/05 11:35:40;;;;;;;;;4.00;4.00;;;;;;;;5071297;28;45326;-77
2023/07/05 11:38:06;;;;;;;;;5.00;4.33;;;;;;;;5052987;28;46514;-76
2023/07/05 11:40:51;;;;;;;;;5.33;4.33;;;;;;;;5060548;28;48409;-77
2023/07/05 11:43:21;;;;;;;;;5.00;5.00;;;;;;;;5063181;28;45659;-77
2023/07/05 11:45:46;;;;;;;;;6.33;5.00;;;;;;;;5080033;28;46104;-78
2023/07/05 11:48:30;;;;;;;;;5.33;4.33;;;;;;;;5041199;28;47091;-74
2023/07/05 11:50:56;;;;;;;;;5.00;4.00;;;;;;;;5063043;28;45369;-76
2023/07/05 11:53:22;;;;;;;;;5.00;4.00;;;;;;;;5062265;28;45338;-75
2023/07/05 11:55:47;;;;;;;;;4.00;4.00;;;;;;;;5060933;28;45330;-74
2023/07/05 11:58:16;;;;;;;;;6.00;6.00;;;;;;;;5062767;28;45655;-76
2023/07/05 12:00:48;;;;;;;;;6.00;4.00;;;;;;;;5080123;28;46401;-76
2023/07/05 12:03:24;;;;;;;;;4.00;4.00;;;;;;;;5061980;28;46131;-78
2023/07/05 12:05:59;;;;;;;;;3.33;3.33;;;;;;;;5062107;28;45487;-77
2023/07/05 12:08:48;;;;;;;;;4.33;4.33;;;;;;;;5080298;28;45348;-77
2023/07/05 12:11:25;;;;;;;;;3.67;3.67;;;;;;;;5079940;28;45408;-76
2023/07/05 12:13:50;;;;;;;;;5.67;5.00;;;;;;;;5081553;28;45354;-76
2023/07/05 12:16:18;;;;;;;;;3.33;3.33;;;;;;;;5062734;28;45561;-78
2023/07/05 12:18:43;;;;;;;;;5.00;5.00;;;;;;;;5063134;28;46021;-77
2023/07/05 12:21:11;;;;;;;;;5.00;4.00;;;;;;;;5081373;28;45408;-82
2023/07/05 12:23:37;;;;;;;;;4.33;4.33;;;;;;;;5080485;28;45207;-75
2023/07/05 12:26:04;;;;;;;;;4.00;4.00;;;;;;;;5081663;28;45222;-77
2023/07/05 12:28:31;;;;;;;;;3.00;3.00;;;;;;;;5081483;28;45268;-76
2023/07/05 12:30:57;;;;;;;;;4.33;4.00;;;;;;;;5081375;28;45331;-77
2023/07/05 12:33:23;;;;;;;;;3.00;3.00;;;;;;;;5081516;28;45342;-78
2023/07/05 12:36:08;;;;;;;;;5.00;5.00;;;;;;;;5063150;28;45381;-75
2023/07/05 12:38:34;;;;;;;;;4.00;4.00;;;;;;;;5081242;28;45333;-75
2023/07/05 12:41:00;;;;;;;;;4.00;3.00;;;;;;;;5081170;28;46244;-80
2023/07/05 12:43:28;;;;;;;;;4.33;4.33;;;;;;;;5081141;28;45583;-76
2023/07/05 12:46:04;;;;;;;;;6.00;6.00;;;;;;;;5081043;28;45363;-75
2023/07/05 12:48:30;;;;;;;;;4.33;3.00;;;;;;;;5062804;28;47042;-75
2023/07/05 12:51:02;;;;;;;;;5.00;4.00;;;;;;;;5080962;28;45414;-75
2023/07/05 12:53:27;;;;;;;;;4.67;4.33;;;;;;;;5081109;28;45357;-75
2023/07/05 12:55:58;;;;;;;;;5.33;5.00;;;;;;;;5081836;28;45365;-76
2023/07/05 12:58:24;;;;;;;;;3.67;3.67;;;;;;;;5083685;28;45366;-75
2023/07/05 13:00:51;;;;;;;;;7.00;6.00;;;;;;;;5081532;28;46207;-75
2023/07/05 13:03:16;;;;;;;;;6.00;6.00;;;;;;;;5081092;28;45343;-74
2023/07/05 13:05:41;;;;;;;;;4.00;4.00;;;;;;;;5081068;28;45230;-74
2023/07/05 13:08:08;;;;;;;;;6.33;6.00;;;;;;;;5062422;28;46028;-75
2023/07/05 13:10:37;;;;;;;;;4.00;4.00;;;;;;;;5062411;28;47484;-77
2023/07/05 13:13:20;;;;;;;;;5.00;5.00;;;;;;;;5081003;28;45309;-76
2023/07/05 13:15:45;;;;;;;;;8.00;5.00;;;;;;;;5080976;28;45401;-77
2023/07/05 13:18:14;;;;;;;;;4.00;4.00;;;;;;;;5062533;28;45879;-77
2023/07/05 13:20:39;;;;;;;;;3.33;3.33;;;;;;;;5081094;28;46254;-77
2023/07/05 13:23:05;;;;;;;;;5.33;5.00;;;;;;;;5080691;28;45367;-78
2023/07/05 13:25:43;;;;;;;;;7.33;7.33;;;;;;;;5080994;28;45290;-76
2023/07/05 13:28:19;;;;;;;;;5.67;5.67;;;;;;;;5062511;28;46105;-78
2023/07/05 13:30:46;;;;;;;;;7.33;6.33;;;;;;;;5058841;28;47176;-78
2023/07/05 13:33:12;;;;;;;;;7.00;6.33;;;;;;;;5060275;28;45375;-77
2023/07/05 13:35:37;;;;;;;;;5.00;5.00;;;;;;;;5041956;28;45461;-78
2023/07/05 13:38:03;;;;;;;;;6.00;6.00;;;;;;;;5059914;28;45477;-76
2023/07/05 13:40:29;;;;;;;;;4.33;4.33;;;;;;;;5060232;28;46457;-78
2023/07/05 13:42:55;;;;;;;;;5.00;3.33;;;;;;;;5060294;28;45437;-79
2023/07/05 13:45:26;;;;;;;;;6.00;5.00;;;;;;;;5042971;28;45363;-78
2023/07/05 13:47:52;;;;;;;;;6.00;6.00;;;;;;;;5059433;28;45884;-75
2023/07/05 13:50:17;;;;;;;;;4.00;4.00;;;;;;;;5059412;28;46003;-76
2023/07/05 13:52:43;;;;;;;;;6.00;4.75;;;;;;;;5068836;28;45359;-77
2023/07/05 13:55:22;;;;;;;;;3.75;3.75;;;;;;;;5080083;28;45318;-75
2023/07/05 13:57:52;;;;;;;;;4.50;3.00;;;;;;;;5078754;27;45274;-77
2023/07/05 14:00:17;;;;;;;;;5.67;5.67;;;;;;;;5072296;28;45939;-75
2023/07/05 14:02:43;;;;;;;;;5.00;4.00;;;;;;;;5068392;28;45514;-77
2023/07/05 14:05:10;;;;;;;;;5.00;4.67;;;;;;;;5068944;28;45290;-77
2023/07/05 14:07:35;;;;;;;;;4.67;4.67;;;;;;;;5069458;28;45430;-76
2023/07/05 14:10:01;;;;;;;;;5.00;5.00;;;;;;;;5068205;28;46480;-75
2023/07/05 14:12:26;;;;;;;;;5.75;5.75;;;;;;;;5075669;28;45441;-75
2023/07/05 14:14:51;;;;;;;;;4.25;4.25;;;;;;;;5062284;28;45493;-77
2023/07/05 14:17:20;;;;;;;;;5.00;5.00;;;;;;;;5079901;28;45259;-74
2023/07/05 14:19:46;;;;;;;;;3.25;3.25;;;;;;;;5079790;28;45268;-76
2023/07/05 14:22:16;;;;;;;;;6.33;4.67;;;;;;;;5079652;28;45393;-74
2023/07/05 14:24:41;;;;;;;;;4.50;4.50;;;;;;;;5079720;28;45357;-74
2023/07/05 14:27:14;;;;;;;;;3.75;3.75;;;;;;;;5079781;28;45223;-76
2023/07/05 14:29:39;;;;;;;;;3.50;3.50;;;;;;;;5083497;27;46199;-75
2023/07/05 14:32:04;;;;;;;;;4.00;4.00;;;;;;;;5071594;28;45374;-74
2023/07/05 14:34:29;;;;;;;;;6.00;6.00;;;;;;;;5067835;28;45424;-74
2023/07/05 14:36:55;;;;;;;;;5.75;5.75;;;;;;;;5069181;28;45405;-74
2023/07/05 14:39:20;;;;;;;;;6.67;5.33;;;;;;;;5068631;28;46285;-74